Hlavní strana
METAR-TAF:

METAR-TAF

Letiště :

Trondheim, Norsko

zeměpisná šířka: 63-28N, zeměpisná délka: 010-56E, výška: 1 m

Aktuální stav počasí

Zpráva byla vytvořena před 20 minutami, v 03:50 UTC
Východojihovýchodní vítr 8 kt
Teplota -5°C
Vlhkost vzduchu 86%
Tlak 1023 hPa
Viditelnost 10 km a více
Žádná oblačnost pod 1500 m, nevyskytují se cumulonimby.

METAR: ENVA 050350Z 12008KT CAVOK M05/M07 Q1023 RMK WIND 670FT 12008KT

Čas: 06:10 (04:10 UTC)

Předpověď počasí

Předpověď platná od 05 v 00 UTC do 05 v 24 UTC
Východoseverovýchodní vítr 8 kt
Viditelnost 10 km a více
Oblačno až skoro zataženo ve výšce 4000 ft

TAF: ENVA 0500/0524 07008KT 9999 BKN040

Stav a předpovědi počasí z více než 4 000 letišť (zprávy METAR a TAF).

Červené a žluté tečky na mapě představují dostupné meteorologické stanice.

Když kurzor umístíte na tečku, zobrazí se název stanice.

Pak kliknutím zobrazíte stav a předpověď počasí.

Chcete-li změnit mapu, kliknutím na zelené tlačítko se znaménkem +mapu přiblížíte, kliknutím na zelené tlačítko se znaménkem – mapu oddálíte a kliknutím na zelené šipky přejdete na sousední mapy.


METAR-TAF: